createdAt,value
2019-05-29T00:02:06.642Z,1.67
2019-05-29T00:04:39.281Z,1.80
2019-05-29T00:07:12.226Z,1.77
2019-05-29T00:09:44.747Z,1.67
2019-05-29T00:12:20.089Z,1.80
2019-05-29T00:14:51.227Z,1.42
2019-05-29T00:17:23.524Z,1.70
2019-05-29T00:19:55.810Z,1.85
2019-05-29T00:22:28.065Z,1.90
2019-05-29T00:25:00.384Z,2.00
2019-05-29T00:27:32.928Z,1.90
2019-05-29T00:30:06.797Z,2.10
2019-05-29T00:32:39.426Z,2.20
2019-05-29T00:35:12.312Z,2.10
2019-05-29T00:37:44.962Z,1.98
2019-05-29T00:40:17.628Z,2.08
2019-05-29T00:42:49.848Z,2.27
2019-05-29T00:45:22.422Z,2.10
2019-05-29T00:47:54.721Z,2.20
2019-05-29T00:50:30.520Z,2.22
2019-05-29T00:53:02.843Z,2.35
2019-05-29T00:55:35.384Z,2.27
2019-05-29T00:58:08.708Z,2.40
2019-05-29T01:00:41.314Z,2.40
2019-05-29T01:03:15.840Z,2.27
2019-05-29T01:05:48.276Z,2.40
2019-05-29T01:08:20.578Z,2.47
2019-05-29T01:10:52.787Z,2.17
2019-05-29T01:13:25.286Z,2.30
2019-05-29T01:15:57.505Z,2.30
2019-05-29T01:18:31.807Z,2.60
2019-05-29T01:21:05.383Z,2.58
2019-05-29T01:23:37.895Z,2.37
2019-05-29T01:26:14.491Z,2.40
2019-05-29T01:28:47.163Z,2.33
2019-05-29T01:31:24.730Z,2.40
2019-05-29T01:33:59.598Z,2.52
2019-05-29T01:36:31.810Z,2.58
2019-05-29T01:39:04.234Z,2.33
2019-05-29T01:41:36.731Z,2.52
2019-05-29T01:44:09.106Z,2.52
2019-05-29T01:46:41.547Z,2.85
2019-05-29T01:49:13.952Z,2.95
2019-05-29T01:51:46.404Z,2.92
2019-05-29T01:54:19.720Z,3.02
2019-05-29T01:56:52.401Z,2.77
2019-05-29T01:59:24.727Z,2.98
2019-05-29T02:01:56.905Z,2.90
2019-05-29T02:04:29.180Z,3.08
2019-05-29T02:07:01.409Z,2.92
2019-05-29T02:09:33.746Z,3.10
2019-05-29T02:12:06.230Z,3.02
2019-05-29T02:14:38.704Z,3.12
2019-05-29T02:17:11.107Z,2.70
2019-05-29T02:19:43.450Z,3.02
2019-05-29T02:22:16.898Z,2.87
2019-05-29T02:24:49.387Z,2.98
2019-05-29T02:27:21.704Z,2.90
2019-05-29T02:29:54.139Z,3.02
2019-05-29T02:32:27.877Z,3.22
2019-05-29T02:35:00.193Z,3.45
2019-05-29T02:37:32.562Z,3.17
2019-05-29T02:40:05.347Z,3.35
2019-05-29T02:42:37.658Z,3.27
2019-05-29T02:45:10.899Z,3.15
2019-05-29T02:47:43.287Z,2.87
2019-05-29T02:50:15.578Z,3.08
2019-05-29T02:52:47.817Z,3.12
2019-05-29T02:55:20.772Z,2.90
2019-05-29T02:57:53.430Z,3.47
2019-05-29T03:00:55.066Z,3.12
2019-05-29T03:03:31.165Z,3.20
2019-05-29T03:06:02.105Z,3.35
2019-05-29T03:08:34.675Z,3.05
2019-05-29T03:11:07.457Z,2.98
2019-05-29T03:13:39.946Z,3.22
2019-05-29T03:16:13.172Z,2.90
2019-05-29T03:18:45.662Z,3.02
2019-05-29T03:21:18.246Z,3.37
2019-05-29T03:23:50.755Z,2.95
2019-05-29T03:26:26.441Z,2.75
2019-05-29T03:28:57.140Z,3.10
2019-05-29T03:31:36.953Z,3.17
2019-05-29T03:34:03.744Z,2.98
2019-05-29T03:36:43.902Z,2.75
2019-05-29T03:41:49.545Z,3.30
2019-05-29T03:44:22.142Z,3.45
2019-05-29T03:46:54.624Z,3.65
2019-05-29T03:49:29.052Z,3.60
2019-05-29T03:52:01.545Z,3.60
2019-05-29T03:54:35.475Z,3.75
2019-05-29T03:57:07.933Z,3.47
2019-05-29T03:59:40.170Z,3.37
2019-05-29T04:02:12.551Z,2.90
2019-05-29T04:04:44.838Z,3.10
2019-05-29T04:07:17.196Z,3.02
2019-05-29T04:09:49.534Z,3.20
2019-05-29T04:12:21.872Z,3.10
2019-05-29T04:14:54.698Z,3.33
2019-05-29T04:17:31.834Z,3.27
2019-05-29T04:20:04.199Z,3.70
2019-05-29T04:22:46.004Z,3.08
2019-05-29T04:25:18.292Z,3.22
2019-05-29T04:27:53.221Z,3.05
2019-05-29T04:30:28.150Z,3.27
2019-05-29T04:33:06.201Z,3.33
2019-05-29T04:35:40.031Z,3.02
2019-05-29T04:38:19.200Z,3.20
2019-05-29T04:40:53.088Z,3.45
2019-05-29T04:43:25.296Z,3.37
2019-05-29T04:45:57.845Z,2.98
2019-05-29T04:48:31.527Z,3.08
2019-05-29T04:51:04.598Z,3.25
2019-05-29T04:53:37.756Z,2.95
2019-05-29T04:56:10.514Z,3.22
2019-05-29T04:58:43.122Z,2.90
2019-05-29T05:01:16.570Z,3.20
2019-05-29T05:03:49.195Z,3.27
2019-05-29T05:06:21.407Z,3.02
2019-05-29T05:08:53.752Z,2.87
2019-05-29T05:11:26.518Z,3.08
2019-05-29T05:14:01.654Z,3.40
2019-05-29T05:16:33.731Z,3.15
2019-05-29T05:19:05.946Z,3.45
2019-05-29T05:21:38.421Z,3.27
2019-05-29T05:24:10.820Z,3.35
2019-05-29T05:26:43.176Z,3.25
2019-05-29T05:29:15.601Z,3.47
2019-05-29T05:31:48.166Z,3.83
2019-05-29T05:34:20.662Z,3.40
2019-05-29T05:36:52.949Z,3.65
2019-05-29T05:39:25.286Z,3.65
2019-05-29T05:41:57.545Z,3.87
2019-05-29T05:44:30.772Z,3.30
2019-05-29T05:47:03.475Z,3.25
2019-05-29T05:49:37.297Z,3.22
2019-05-29T05:52:09.858Z,3.05
2019-05-29T05:54:42.275Z,3.55
2019-05-29T05:57:14.602Z,3.33
2019-05-29T05:59:46.882Z,3.10
2019-05-29T06:02:19.429Z,3.27
2019-05-29T06:04:51.872Z,2.87
2019-05-29T06:07:24.195Z,3.05
2019-05-29T06:09:56.794Z,3.30
2019-05-29T06:12:29.190Z,3.22
2019-05-29T06:15:01.716Z,3.15
2019-05-29T06:17:34.428Z,3.22
2019-05-29T06:20:07.296Z,3.45
2019-05-29T06:22:41.033Z,2.87
2019-05-29T06:25:14.126Z,2.95
2019-05-29T06:27:46.571Z,3.22
2019-05-29T06:30:20.486Z,3.27
2019-05-29T06:32:53.051Z,3.42
2019-05-29T06:35:25.702Z,3.70
2019-05-29T06:37:58.154Z,4.03
2019-05-29T06:40:40.285Z,4.17
2019-05-29T06:43:31.765Z,4.10
2019-05-29T06:46:04.224Z,5.25
2019-05-29T06:48:46.692Z,4.15
2019-05-29T06:51:11.326Z,5.97
2019-05-29T06:53:44.160Z,4.65
2019-05-29T06:56:17.241Z,4.83
2019-05-29T06:58:49.955Z,4.15
2019-05-29T07:01:22.494Z,4.03
2019-05-29T07:04:10.603Z,4.42
2019-05-29T07:06:29.088Z,4.40
2019-05-29T07:09:01.475Z,4.28
2019-05-29T07:11:34.259Z,5.00
2019-05-29T07:14:06.667Z,4.42
2019-05-29T07:16:45.199Z,4.25
2019-05-29T07:19:47.199Z,4.78
2019-05-29T07:21:47.266Z,4.40
2019-05-29T07:24:19.662Z,4.15
2019-05-29T07:26:52.264Z,4.35
2019-05-29T07:29:24.701Z,3.58
2019-05-29T07:31:57.507Z,3.55
2019-05-29T07:34:29.775Z,3.72
2019-05-29T07:37:09.482Z,4.37
2019-05-29T07:39:43.960Z,3.50
2019-05-29T07:42:16.662Z,3.58
2019-05-29T07:44:48.981Z,3.27
2019-05-29T07:47:21.393Z,3.50
2019-05-29T07:49:53.787Z,3.00
2019-05-29T07:52:26.193Z,3.20
2019-05-29T07:54:58.553Z,3.37
2019-05-29T07:57:31.025Z,2.85
2019-05-29T08:00:03.345Z,3.25
2019-05-29T08:02:35.797Z,4.08
2019-05-29T08:05:09.478Z,3.20
2019-05-29T08:07:43.401Z,2.67
2019-05-29T08:10:16.337Z,3.25
2019-05-29T08:12:54.309Z,2.52
2019-05-29T08:15:22.608Z,2.80
2019-05-29T08:17:54.985Z,2.70
2019-05-29T08:20:27.241Z,2.42
2019-05-29T08:22:59.679Z,2.60
2019-05-29T08:25:33.447Z,3.00
2019-05-29T08:28:07.294Z,2.70
2019-05-29T08:30:41.027Z,3.15
2019-05-29T08:33:13.572Z,3.50
2019-05-29T08:35:47.187Z,2.87
2019-05-29T08:38:20.422Z,3.10
2019-05-29T08:40:52.895Z,2.90
2019-05-29T08:43:25.080Z,3.08
2019-05-29T08:45:59.464Z,3.27
2019-05-29T08:48:31.758Z,2.95
2019-05-29T08:51:04.276Z,4.00
2019-05-29T08:53:36.556Z,3.05
2019-05-29T08:56:08.877Z,3.33
2019-05-29T08:58:42.909Z,2.85
2019-05-29T09:01:15.385Z,2.83
2019-05-29T09:03:48.882Z,3.70
2019-05-29T09:06:21.421Z,3.00
2019-05-29T09:08:54.994Z,2.83
2019-05-29T09:11:27.770Z,3.37
2019-05-29T09:13:59.937Z,3.17
2019-05-29T09:16:32.269Z,3.30
2019-05-29T09:19:04.540Z,3.87
2019-05-29T09:21:36.975Z,3.10
2019-05-29T09:24:09.269Z,3.20
2019-05-29T09:26:41.819Z,3.12
2019-05-29T09:29:16.702Z,3.00
2019-05-29T09:31:48.159Z,4.55
2019-05-29T09:34:20.591Z,3.45
2019-05-29T09:36:55.691Z,3.25
2019-05-29T09:39:27.155Z,3.70
2019-05-29T09:41:59.941Z,3.40
2019-05-29T09:44:38.970Z,2.67
2019-05-29T09:47:07.035Z,4.10
2019-05-29T09:49:39.347Z,5.37
2019-05-29T09:52:11.585Z,5.15
2019-05-29T09:54:44.000Z,3.65
2019-05-29T09:57:16.300Z,2.92
2019-05-29T09:59:48.669Z,2.52
2019-05-29T10:02:21.204Z,2.80
2019-05-29T10:04:55.913Z,3.00
2019-05-29T10:07:28.599Z,3.00
2019-05-29T10:10:03.082Z,2.87
2019-05-29T10:12:35.486Z,2.65
2019-05-29T10:15:08.921Z,3.00
2019-05-29T10:17:41.207Z,2.50
2019-05-29T10:20:15.859Z,3.20
2019-05-29T10:22:49.395Z,3.70
2019-05-29T10:25:22.590Z,3.33
2019-05-29T10:27:54.967Z,3.70
2019-05-29T10:30:28.692Z,3.77
2019-05-29T10:33:00.924Z,4.08
2019-05-29T10:35:33.303Z,3.10
2019-05-29T10:38:06.014Z,3.47
2019-05-29T10:40:38.668Z,3.62
2019-05-29T10:43:11.395Z,3.30
2019-05-29T10:45:43.667Z,3.55
2019-05-29T10:48:18.446Z,3.00
2019-05-29T10:50:52.560Z,3.90
2019-05-29T10:53:25.325Z,4.10
2019-05-29T10:55:58.148Z,4.83
2019-05-29T10:58:45.772Z,3.75
2019-05-29T11:01:05.364Z,3.90
2019-05-29T11:03:37.949Z,3.90
2019-05-29T11:06:10.329Z,3.22
2019-05-29T11:08:42.765Z,3.17
2019-05-29T11:11:15.057Z,3.25
2019-05-29T11:13:48.653Z,3.40
2019-05-29T11:16:21.273Z,3.33
2019-05-29T11:18:55.212Z,3.00
2019-05-29T11:21:27.689Z,3.37
2019-05-29T11:24:00.056Z,3.70
2019-05-29T11:26:32.411Z,4.30
2019-05-29T11:29:04.699Z,3.52
2019-05-29T11:31:36.982Z,3.35
2019-05-29T11:34:09.289Z,3.85
2019-05-29T11:36:42.048Z,3.00
2019-05-29T11:39:14.566Z,3.27
2019-05-29T11:41:46.861Z,3.10
2019-05-29T11:44:19.115Z,3.40
2019-05-29T11:46:52.140Z,3.08
2019-05-29T11:49:24.851Z,3.42
2019-05-29T11:52:18.829Z,3.20
2019-05-29T11:54:31.115Z,3.08
2019-05-29T11:57:03.431Z,3.15
2019-05-29T11:59:36.106Z,2.87
2019-05-29T12:02:08.514Z,3.30
2019-05-29T12:04:40.972Z,2.90
2019-05-29T12:07:13.247Z,2.83
2019-05-29T12:09:45.656Z,3.20
2019-05-29T12:12:18.095Z,2.58
2019-05-29T12:15:00.254Z,3.02
2019-05-29T12:17:24.774Z,2.98
2019-05-29T12:20:02.350Z,2.95
2019-05-29T12:22:35.782Z,3.77
2019-05-29T12:25:08.687Z,3.10
2019-05-29T12:27:41.287Z,2.70
2019-05-29T12:30:14.737Z,3.37
2019-05-29T12:32:47.851Z,2.92
2019-05-29T12:35:20.896Z,3.58
2019-05-29T12:37:53.297Z,3.20
2019-05-29T12:40:25.962Z,3.17
2019-05-29T12:42:59.938Z,3.40
2019-05-29T12:45:32.257Z,3.42
2019-05-29T12:48:11.693Z,3.55
2019-05-29T12:50:38.952Z,3.60
2019-05-29T12:53:28.318Z,3.37
2019-05-29T12:55:46.628Z,3.70
2019-05-29T12:58:19.109Z,2.90
2019-05-29T13:00:51.710Z,3.40
2019-05-29T13:03:24.088Z,2.50
2019-05-29T13:05:56.734Z,2.77
2019-05-29T13:08:28.988Z,3.20
2019-05-29T13:11:02.668Z,3.40
2019-05-29T13:13:35.100Z,3.40
2019-05-29T13:16:07.558Z,3.40
2019-05-29T13:18:39.813Z,3.58
2019-05-29T13:21:12.353Z,3.27
2019-05-29T13:23:45.714Z,3.27
2019-05-29T13:26:18.338Z,3.20
2019-05-29T13:28:50.766Z,3.70
2019-05-29T13:31:23.089Z,3.30
2019-05-29T13:33:55.630Z,3.40
2019-05-29T13:36:27.853Z,3.20
2019-05-29T13:39:00.220Z,3.40
2019-05-29T13:41:32.854Z,3.40
2019-05-29T13:44:06.790Z,3.52
2019-05-29T13:46:39.350Z,3.92
2019-05-29T13:49:11.797Z,3.70
2019-05-29T13:51:44.138Z,3.47
2019-05-29T13:54:18.132Z,3.50
2019-05-29T13:56:50.739Z,3.98
2019-05-29T13:59:24.588Z,4.22
2019-05-29T14:01:58.272Z,4.00
2019-05-29T14:04:30.894Z,3.75
2019-05-29T14:07:04.917Z,4.08
2019-05-29T14:09:37.724Z,3.80
2019-05-29T14:12:10.089Z,3.67
2019-05-29T14:14:43.273Z,4.22
2019-05-29T14:17:15.599Z,3.67
2019-05-29T14:19:48.358Z,4.10
2019-05-29T14:22:20.974Z,3.60
2019-05-29T14:24:53.369Z,4.60
2019-05-29T14:27:25.772Z,4.28
2019-05-29T14:29:58.169Z,4.42
2019-05-29T14:32:30.464Z,4.20
2019-05-29T14:35:05.173Z,4.10
2019-05-29T14:37:36.765Z,3.65
2019-05-29T14:40:09.907Z,3.77
2019-05-29T14:42:42.643Z,3.90
2019-05-29T14:45:16.654Z,3.85
2019-05-29T14:47:49.031Z,3.65
2019-05-29T14:50:21.439Z,4.05
2019-05-29T14:52:53.859Z,3.95
2019-05-29T14:55:26.062Z,4.17
2019-05-29T14:57:58.580Z,3.67
2019-05-29T15:00:31.022Z,3.92
2019-05-29T15:03:03.426Z,3.67
2019-05-29T15:05:35.923Z,3.33
2019-05-29T15:08:09.607Z,3.27
2019-05-29T15:10:42.367Z,3.80
2019-05-29T15:13:15.296Z,4.37
2019-05-29T15:15:48.028Z,4.17
2019-05-29T15:18:20.376Z,4.30
2019-05-29T15:20:52.812Z,3.77
2019-05-29T15:23:25.140Z,4.08
2019-05-29T15:25:57.720Z,4.28
2019-05-29T15:28:30.017Z,3.80
2019-05-29T15:31:02.460Z,3.77
2019-05-29T15:33:34.634Z,3.92
2019-05-29T15:36:07.029Z,3.72
2019-05-29T15:38:39.392Z,3.85
2019-05-29T15:41:14.827Z,3.70
2019-05-29T15:43:49.418Z,3.60
2019-05-29T15:46:22.845Z,3.27
2019-05-29T15:48:55.463Z,3.95
2019-05-29T15:51:28.110Z,3.22
2019-05-29T15:54:01.286Z,3.42
2019-05-29T15:56:34.061Z,3.45
2019-05-29T15:59:07.958Z,3.05
2019-05-29T16:01:41.875Z,3.50
2019-05-29T16:04:15.763Z,3.27
2019-05-29T16:06:48.151Z,3.30
2019-05-29T16:09:20.613Z,3.27
2019-05-29T16:11:53.157Z,2.90
2019-05-29T16:14:25.530Z,2.80
2019-05-29T16:16:57.953Z,3.00
2019-05-29T16:19:30.151Z,2.90
2019-05-29T16:22:02.635Z,2.92
2019-05-29T16:24:35.130Z,2.90
2019-05-29T16:27:10.560Z,2.45
2019-05-29T16:29:42.916Z,2.70
2019-05-29T16:32:16.069Z,2.72
2019-05-29T16:34:48.595Z,2.95
2019-05-29T16:37:21.953Z,2.60
2019-05-29T16:39:54.632Z,2.80
2019-05-29T16:42:27.499Z,2.60
2019-05-29T16:44:59.911Z,2.50
2019-05-29T16:47:32.846Z,2.60
2019-05-29T16:50:05.883Z,2.50
2019-05-29T16:52:38.483Z,2.75
2019-05-29T16:55:11.083Z,2.90
2019-05-29T16:57:43.888Z,3.30
2019-05-29T17:00:17.733Z,2.95
2019-05-29T17:02:50.737Z,3.10
2019-05-29T17:05:24.256Z,3.20
2019-05-29T17:07:57.281Z,3.02
2019-05-29T17:10:39.069Z,3.15
2019-05-29T17:13:11.765Z,2.92
2019-05-29T17:15:44.198Z,2.80
2019-05-29T17:18:18.867Z,3.35
2019-05-29T17:20:51.184Z,3.10
2019-05-29T17:23:25.219Z,2.60
2019-05-29T17:26:10.143Z,3.00
2019-05-29T17:28:31.931Z,2.60
2019-05-29T17:31:04.536Z,3.10
2019-05-29T17:33:37.163Z,3.30
2019-05-29T17:36:09.538Z,3.40
2019-05-29T17:38:42.571Z,3.15
2019-05-29T17:41:15.331Z,3.22
2019-05-29T17:43:48.187Z,2.77
2019-05-29T17:46:21.698Z,3.10
2019-05-29T17:48:54.282Z,2.60
2019-05-29T17:51:26.541Z,2.50
2019-05-29T17:53:59.714Z,2.60
2019-05-29T17:56:36.580Z,2.90
2019-05-29T17:59:07.463Z,2.75
2019-05-29T18:01:40.075Z,2.90
2019-05-29T18:04:12.859Z,3.42
2019-05-29T18:06:45.098Z,3.10
2019-05-29T18:09:18.979Z,3.12
2019-05-29T18:11:51.668Z,3.67
2019-05-29T18:14:25.320Z,3.50
2019-05-29T18:16:57.675Z,4.05
2019-05-29T18:19:30.168Z,4.12
2019-05-29T18:22:02.956Z,3.83
2019-05-29T18:24:35.446Z,3.95
2019-05-29T18:27:08.234Z,4.15
2019-05-29T18:29:40.742Z,3.90
2019-05-29T18:32:13.218Z,3.37
2019-05-29T18:34:45.624Z,4.10
2019-05-29T18:37:18.023Z,3.72
2019-05-29T18:39:50.249Z,3.72
2019-05-29T18:42:22.688Z,4.05
2019-05-29T18:44:54.940Z,3.45
2019-05-29T18:47:27.495Z,3.95
2019-05-29T18:50:00.134Z,3.80
2019-05-29T18:52:32.941Z,3.70
2019-05-29T18:55:05.453Z,3.30
2019-05-29T18:57:38.164Z,3.40
2019-05-29T19:00:11.888Z,2.75
2019-05-29T19:02:44.500Z,3.00
2019-05-29T19:05:17.788Z,3.30
2019-05-29T19:07:50.272Z,3.30
2019-05-29T19:10:23.672Z,3.45
2019-05-29T19:12:56.503Z,3.60
2019-05-29T19:15:30.079Z,3.10
2019-05-29T19:18:03.995Z,3.25
2019-05-29T19:20:36.347Z,3.45
2019-05-29T19:23:08.963Z,3.12
2019-05-29T19:25:41.394Z,3.47
2019-05-29T19:28:14.283Z,3.30
2019-05-29T19:30:46.662Z,3.25
2019-05-29T19:33:19.328Z,3.10
2019-05-29T19:35:51.896Z,2.58
2019-05-29T19:38:25.654Z,2.98
2019-05-29T19:40:57.948Z,2.50
2019-05-29T19:43:30.370Z,2.65
2019-05-29T19:46:02.736Z,2.37
2019-05-29T19:48:35.473Z,2.00
2019-05-29T19:51:08.188Z,2.45
2019-05-29T19:53:40.660Z,3.00
2019-05-29T19:56:13.884Z,2.80
2019-05-29T19:58:49.669Z,3.05
2019-05-29T20:01:30.488Z,3.15
2019-05-29T20:03:56.053Z,2.83
2019-05-29T20:06:28.859Z,2.75
2019-05-29T20:09:01.562Z,2.47
2019-05-29T20:11:33.975Z,2.25
2019-05-29T20:14:07.630Z,2.02
2019-05-29T20:16:40.130Z,2.00
2019-05-29T20:19:12.731Z,1.70
2019-05-29T20:21:45.072Z,1.80
2019-05-29T20:24:17.473Z,1.80
2019-05-29T20:26:49.796Z,1.62
2019-05-29T20:29:22.103Z,1.40
2019-05-29T20:31:54.769Z,1.80
2019-05-29T20:34:27.151Z,1.60
2019-05-29T20:36:59.818Z,1.40
2019-05-29T20:39:32.992Z,1.70
2019-05-29T20:42:06.224Z,1.45
2019-05-29T20:44:38.815Z,1.50
2019-05-29T20:47:11.443Z,1.60
2019-05-29T20:49:47.300Z,1.67
2019-05-29T20:54:58.559Z,1.70
2019-05-29T20:57:29.298Z,1.50
2019-05-29T21:00:01.842Z,1.25
2019-05-29T21:02:34.269Z,1.40
2019-05-29T21:05:07.741Z,1.50
2019-05-29T21:07:41.006Z,1.40
2019-05-29T21:10:14.477Z,1.65
2019-05-29T21:12:47.775Z,1.55
2019-05-29T21:15:20.844Z,1.55
2019-05-29T21:17:53.683Z,1.32
2019-05-29T21:20:29.093Z,1.32
2019-05-29T21:23:00.913Z,1.47
2019-05-29T21:25:34.589Z,1.62
2019-05-29T21:28:07.618Z,1.70
2019-05-29T21:30:41.363Z,1.80
2019-05-29T21:33:14.532Z,1.35
2019-05-29T21:35:47.442Z,1.60
2019-05-29T21:38:19.747Z,1.50
2019-05-29T21:40:52.372Z,1.60
2019-05-29T21:43:24.778Z,1.67
2019-05-29T21:45:57.456Z,1.60
2019-05-29T21:48:29.656Z,1.70
2019-05-29T21:51:02.932Z,1.62
2019-05-29T21:53:35.235Z,1.80
2019-05-29T21:56:12.221Z,1.77
2019-05-29T21:58:59.971Z,1.70
2019-05-29T22:01:19.916Z,1.50
2019-05-29T22:03:52.320Z,1.47
2019-05-29T22:06:25.097Z,1.70
2019-05-29T22:08:57.859Z,1.52
2019-05-29T22:11:30.137Z,1.80
2019-05-29T22:14:02.669Z,1.60
2019-05-29T22:16:34.943Z,1.80
2019-05-29T22:19:07.773Z,1.72
2019-05-29T22:21:40.331Z,1.65
2019-05-29T22:24:12.901Z,1.70
2019-05-29T22:26:45.277Z,1.60
2019-05-29T22:29:18.590Z,1.70
2019-05-29T22:31:51.309Z,1.50
2019-05-29T22:34:23.894Z,1.50
2019-05-29T22:36:57.482Z,1.52
2019-05-29T22:39:30.445Z,1.70
2019-05-29T22:42:03.126Z,1.55
2019-05-29T22:44:36.098Z,1.75
2019-05-29T22:47:08.429Z,1.60
2019-05-29T22:49:40.879Z,1.70
2019-05-29T22:52:13.170Z,1.50
2019-05-29T22:54:45.613Z,1.82
2019-05-29T22:57:18.280Z,1.52
2019-05-29T22:59:51.841Z,1.60
2019-05-29T23:02:24.207Z,1.57
2019-05-29T23:04:58.473Z,1.40
2019-05-29T23:07:31.493Z,1.52
2019-05-29T23:10:04.247Z,1.60
2019-05-29T23:12:36.495Z,1.60
2019-05-29T23:15:10.392Z,1.67
2019-05-29T23:17:43.035Z,1.80
2019-05-29T23:20:16.538Z,1.55
2019-05-29T23:22:48.881Z,1.60
2019-05-29T23:25:21.403Z,1.42
2019-05-29T23:27:54.858Z,1.50
2019-05-29T23:30:30.271Z,1.40
2019-05-29T23:33:01.470Z,1.55
2019-05-29T23:35:33.815Z,1.35
2019-05-29T23:38:06.271Z,1.32
2019-05-29T23:40:38.546Z,1.30
2019-05-29T23:43:11.158Z,1.70
2019-05-29T23:45:43.679Z,1.67
2019-05-29T23:48:19.951Z,1.37
2019-05-29T23:50:53.348Z,1.52
2019-05-29T23:53:25.935Z,1.77
2019-05-29T23:55:59.720Z,1.57
2019-05-29T23:58:32.357Z,1.40
